createdAt,value
2019-02-19T00:01:00.963Z,14.10
2019-02-19T00:03:30.945Z,14.15
2019-02-19T00:06:01.655Z,14.65
2019-02-19T00:08:31.237Z,13.03
2019-02-19T00:11:02.147Z,17.70
2019-02-19T00:13:31.623Z,20.43
2019-02-19T00:16:01.066Z,22.22
2019-02-19T00:18:30.849Z,20.70
2019-02-19T00:21:01.660Z,15.53
2019-02-19T00:23:31.139Z,15.43
2019-02-19T00:26:00.650Z,21.40
2019-02-19T00:28:30.130Z,16.73
2019-02-19T00:31:01.178Z,14.78
2019-02-19T00:33:30.750Z,15.80
2019-02-19T00:36:00.287Z,15.45
2019-02-19T00:38:29.760Z,14.35
2019-02-19T00:40:59.270Z,16.10
2019-02-19T00:43:30.628Z,13.90
2019-02-19T00:46:01.411Z,15.35
2019-02-19T00:48:31.378Z,14.90
2019-02-19T00:51:02.191Z,14.87
2019-02-19T00:53:31.671Z,17.80
2019-02-19T00:56:01.177Z,14.35
2019-02-19T00:58:30.923Z,14.25
2019-02-19T01:01:00.368Z,14.13
2019-02-19T01:03:30.176Z,15.80
2019-02-19T01:05:59.685Z,20.97
2019-02-19T01:08:29.167Z,14.75
2019-02-19T01:10:59.977Z,13.55
2019-02-19T01:13:29.459Z,13.45
2019-02-19T01:15:58.987Z,16.23
2019-02-19T01:18:28.476Z,19.17
2019-02-19T01:20:57.887Z,12.15
2019-02-19T01:23:27.332Z,13.80
2019-02-19T01:25:56.814Z,12.68
2019-02-19T01:28:26.251Z,12.25
2019-02-19T01:30:56.939Z,12.13
2019-02-19T01:33:26.462Z,11.50
2019-02-19T01:35:55.947Z,12.07
2019-02-19T01:38:25.385Z,16.67
2019-02-19T01:40:54.858Z,12.05
2019-02-19T01:43:24.299Z,16.77
2019-02-19T01:45:53.792Z,12.68
2019-02-19T01:48:23.297Z,12.00
2019-02-19T01:50:54.078Z,15.60
2019-02-19T01:53:23.587Z,12.33
2019-02-19T01:55:54.267Z,13.25
2019-02-19T01:58:23.777Z,13.15
2019-02-19T02:00:54.457Z,12.40
2019-02-19T02:03:23.982Z,13.53
2019-02-19T02:05:53.465Z,11.28
2019-02-19T02:08:22.984Z,11.40
2019-02-19T02:10:52.461Z,14.18
2019-02-19T02:13:21.977Z,11.75
2019-02-19T02:15:52.659Z,13.53
2019-02-19T02:18:22.175Z,13.00
2019-02-19T02:20:52.855Z,12.98
2019-02-19T02:23:22.373Z,12.15
2019-02-19T02:25:53.066Z,12.03
2019-02-19T02:28:22.514Z,11.88
2019-02-19T02:30:51.997Z,12.70
2019-02-19T02:33:23.068Z,11.55
2019-02-19T02:35:53.946Z,10.85
2019-02-19T02:38:23.530Z,11.33
2019-02-19T02:40:54.974Z,10.80
2019-02-19T02:43:24.071Z,10.23
2019-02-19T02:45:53.977Z,10.50
2019-02-19T02:48:23.430Z,11.10
2019-02-19T02:50:52.834Z,10.35
2019-02-19T02:53:23.808Z,10.80
2019-02-19T02:55:53.230Z,10.20
2019-02-19T02:58:22.752Z,9.93
2019-02-19T03:00:53.435Z,10.05
2019-02-19T03:03:22.926Z,11.55
2019-02-19T03:06:02.184Z,10.88
2019-02-19T03:08:31.713Z,12.15
2019-02-19T03:11:01.196Z,10.80
2019-02-19T03:13:30.714Z,10.85
2019-02-19T03:16:02.767Z,9.80
2019-02-19T03:18:32.430Z,10.70
2019-02-19T03:21:03.139Z,9.50
2019-02-19T03:23:32.707Z,9.98
2019-02-19T03:26:03.688Z,9.75
2019-02-19T03:28:33.163Z,10.55
2019-02-19T03:31:02.713Z,10.00
2019-02-19T03:33:32.293Z,10.40
2019-02-19T03:36:03.080Z,9.40
2019-02-19T03:38:32.562Z,10.95
2019-02-19T03:41:02.007Z,9.88
2019-02-19T03:43:31.486Z,10.85
2019-02-19T03:46:00.928Z,10.40
2019-02-19T03:48:30.407Z,9.75
2019-02-19T03:51:01.125Z,10.50
2019-02-19T03:53:30.603Z,10.20
2019-02-19T03:56:00.137Z,10.72
2019-02-19T03:58:29.598Z,10.10
2019-02-19T04:00:59.045Z,10.88
2019-02-19T04:03:28.530Z,10.88
2019-02-19T04:05:57.976Z,11.00
2019-02-19T04:08:27.388Z,11.25
2019-02-19T04:10:56.830Z,11.45
2019-02-19T04:13:26.311Z,12.73
2019-02-19T04:15:55.822Z,12.13
2019-02-19T04:18:25.297Z,11.03
2019-02-19T04:20:56.254Z,11.50
2019-02-19T04:23:25.658Z,11.33
2019-02-19T04:25:56.374Z,11.15
2019-02-19T04:28:25.851Z,10.05
2019-02-19T04:30:56.563Z,11.30
2019-02-19T04:33:25.970Z,11.65
2019-02-19T04:35:57.763Z,12.10
2019-02-19T04:38:27.174Z,11.30
2019-02-19T04:40:57.994Z,11.38
2019-02-19T04:43:27.402Z,11.38
2019-02-19T04:45:58.114Z,11.85
2019-02-19T04:48:27.600Z,11.25
2019-02-19T04:50:58.331Z,10.40
2019-02-19T04:53:27.738Z,11.05
2019-02-19T04:55:57.157Z,10.28
2019-02-19T04:58:26.597Z,10.82
2019-02-19T05:00:57.383Z,10.63
2019-02-19T05:03:26.834Z,9.95
2019-02-19T05:05:57.502Z,10.65
2019-02-19T05:08:27.015Z,11.18
2019-02-19T05:10:56.420Z,10.88
2019-02-19T05:13:25.864Z,11.68
2019-02-19T05:15:55.274Z,10.88
2019-02-19T05:18:24.875Z,11.10
2019-02-19T05:20:57.264Z,10.60
2019-02-19T05:23:26.725Z,11.43
2019-02-19T05:25:56.126Z,10.72
2019-02-19T05:28:25.566Z,11.70
2019-02-19T05:30:54.977Z,10.90
2019-02-19T05:33:24.430Z,10.68
2019-02-19T05:35:55.220Z,11.85
2019-02-19T05:38:24.658Z,11.38
2019-02-19T05:40:55.443Z,10.75
2019-02-19T05:43:24.880Z,11.28
2019-02-19T05:45:54.290Z,11.90
2019-02-19T05:48:23.856Z,12.05
2019-02-19T05:50:53.263Z,10.23
2019-02-19T05:53:22.702Z,11.65
2019-02-19T05:55:52.115Z,11.15
2019-02-19T05:58:21.563Z,11.10
2019-02-19T06:00:51.111Z,11.73
2019-02-19T06:03:20.555Z,12.25
2019-02-19T06:05:50.038Z,11.60
2019-02-19T06:08:19.481Z,12.43
2019-02-19T06:10:50.361Z,11.95
2019-02-19T06:13:19.815Z,13.50
2019-02-19T06:15:49.235Z,12.58
2019-02-19T06:18:20.459Z,12.15
2019-02-19T06:20:50.038Z,12.25
2019-02-19T06:23:19.448Z,13.38
2019-02-19T06:25:48.890Z,11.40
2019-02-19T06:28:18.306Z,12.88
2019-02-19T06:30:47.748Z,11.70
2019-02-19T06:33:17.159Z,11.85
2019-02-19T06:35:46.597Z,13.18
2019-02-19T06:38:16.001Z,12.95
2019-02-19T06:40:46.821Z,11.83
2019-02-19T06:43:16.236Z,13.13
2019-02-19T06:45:45.687Z,11.15
2019-02-19T06:48:15.136Z,13.03
2019-02-19T06:50:44.607Z,11.80
2019-02-19T06:53:14.018Z,12.50
2019-02-19T06:55:44.981Z,11.28
2019-02-19T06:58:14.600Z,11.43
2019-02-19T07:00:44.117Z,11.48
2019-02-19T07:03:15.177Z,11.22
2019-02-19T07:05:45.891Z,11.10
2019-02-19T07:08:15.301Z,13.55
2019-02-19T07:10:44.750Z,11.83
2019-02-19T07:13:14.162Z,11.57
2019-02-19T07:15:43.681Z,11.55
2019-02-19T07:18:13.099Z,11.28
2019-02-19T07:20:43.822Z,10.72
2019-02-19T07:23:13.281Z,11.55
2019-02-19T07:25:42.812Z,10.82
2019-02-19T07:28:12.232Z,10.20
2019-02-19T07:30:43.153Z,10.78
2019-02-19T07:33:12.571Z,11.47
2019-02-19T07:35:43.491Z,10.70
2019-02-19T07:38:12.932Z,10.33
2019-02-19T07:40:43.668Z,10.37
2019-02-19T07:43:13.147Z,10.70
2019-02-19T07:45:44.061Z,9.60
2019-02-19T07:48:14.767Z,10.30
2019-02-19T07:50:44.210Z,10.00
2019-02-19T07:53:13.692Z,10.13
2019-02-19T07:55:44.408Z,10.00
2019-02-19T07:58:13.891Z,9.37
2019-02-19T08:00:44.722Z,9.70
2019-02-19T08:03:14.216Z,8.63
2019-02-19T08:05:45.073Z,9.77
2019-02-19T08:08:15.139Z,9.07
2019-02-19T08:10:45.964Z,9.63
2019-02-19T08:13:15.454Z,9.10
2019-02-19T08:15:47.870Z,9.53
2019-02-19T08:18:17.285Z,8.97
2019-02-19T08:20:48.187Z,9.13
2019-02-19T08:23:19.234Z,8.37
2019-02-19T08:25:49.962Z,8.57
2019-02-19T08:28:19.439Z,8.47
2019-02-19T08:30:50.231Z,8.33
2019-02-19T08:33:19.748Z,8.83
2019-02-19T08:35:49.272Z,8.07
2019-02-19T08:38:18.876Z,9.00
2019-02-19T08:40:48.322Z,7.70
2019-02-19T08:43:17.770Z,8.40
2019-02-19T08:45:48.789Z,8.40
2019-02-19T08:48:18.444Z,8.03
2019-02-19T08:50:49.219Z,7.90
2019-02-19T08:53:18.664Z,8.00
2019-02-19T08:55:48.067Z,7.63
2019-02-19T08:58:17.582Z,8.20
2019-02-19T09:00:47.291Z,6.73
2019-02-19T09:03:17.010Z,7.40
2019-02-19T09:05:46.495Z,7.50
2019-02-19T09:08:16.007Z,6.63
2019-02-19T09:10:46.783Z,6.73
2019-02-19T09:13:16.299Z,6.77
2019-02-19T09:15:47.616Z,7.07
2019-02-19T09:18:17.092Z,7.00
2019-02-19T09:20:47.868Z,6.90
2019-02-19T09:23:17.368Z,6.60
2019-02-19T09:25:48.047Z,6.63
2019-02-19T09:28:17.478Z,6.63
2019-02-19T09:30:46.959Z,7.10
2019-02-19T09:33:16.469Z,6.93
2019-02-19T09:35:47.344Z,6.53
2019-02-19T09:38:18.332Z,6.30
2019-02-19T09:40:49.004Z,7.13
2019-02-19T09:43:18.464Z,5.70
2019-02-19T09:45:49.227Z,7.00
2019-02-19T09:48:22.285Z,6.23
2019-02-19T09:50:53.026Z,7.33
2019-02-19T09:53:22.475Z,7.83
2019-02-19T09:55:51.904Z,8.03
2019-02-19T09:58:21.311Z,7.73
2019-02-19T10:00:52.017Z,6.97
2019-02-19T10:03:21.427Z,7.93
2019-02-19T10:05:50.868Z,7.40
2019-02-19T10:08:20.279Z,7.40
2019-02-19T10:10:49.719Z,6.73
2019-02-19T10:13:20.309Z,7.30
2019-02-19T10:15:51.311Z,6.77
2019-02-19T10:18:20.723Z,5.97
2019-02-19T10:20:51.750Z,6.60
2019-02-19T10:23:21.583Z,6.33
2019-02-19T10:25:52.394Z,6.10
2019-02-19T10:28:21.872Z,6.07
2019-02-19T10:30:52.583Z,6.63
2019-02-19T10:33:22.064Z,6.60
2019-02-19T10:35:51.579Z,6.00
2019-02-19T10:38:21.051Z,6.67
2019-02-19T10:40:50.577Z,6.53
2019-02-19T10:43:20.436Z,6.50
2019-02-19T10:45:51.266Z,7.37
2019-02-19T10:48:20.852Z,6.03
2019-02-19T10:50:51.661Z,5.40
2019-02-19T10:53:21.439Z,6.60
2019-02-19T10:55:52.151Z,6.10
2019-02-19T10:58:23.108Z,6.33
2019-02-19T11:00:53.008Z,5.93
2019-02-19T11:03:22.650Z,5.63
2019-02-19T11:05:53.631Z,6.57
2019-02-19T11:08:23.108Z,6.43
2019-02-19T11:10:53.827Z,6.67
2019-02-19T11:13:23.298Z,5.90
2019-02-19T11:15:52.810Z,5.97
2019-02-19T11:18:28.086Z,6.27
2019-02-19T11:20:54.707Z,5.97
2019-02-19T11:23:24.177Z,6.50
2019-02-19T11:25:53.687Z,6.03
2019-02-19T11:28:23.170Z,6.00
2019-02-19T11:30:53.979Z,6.23
2019-02-19T11:33:23.463Z,6.10
2019-02-19T11:35:54.875Z,6.23
2019-02-19T11:38:24.550Z,6.30
2019-02-19T11:40:54.051Z,5.90
2019-02-19T11:43:23.524Z,6.20
2019-02-19T11:45:54.111Z,6.03
2019-02-19T11:48:24.614Z,5.73
2019-02-19T11:50:55.606Z,6.77
2019-02-19T11:53:25.070Z,6.80
2019-02-19T11:55:54.484Z,7.20
2019-02-19T11:58:23.991Z,6.27
2019-02-19T12:00:54.733Z,7.80
2019-02-19T12:03:24.186Z,7.73
2019-02-19T12:05:53.599Z,6.80
2019-02-19T12:08:23.044Z,6.50
2019-02-19T12:10:52.447Z,7.83
2019-02-19T12:13:21.880Z,6.27
2019-02-19T12:15:52.658Z,5.90
2019-02-19T12:18:22.091Z,6.60
2019-02-19T12:20:53.050Z,6.33
2019-02-19T12:23:22.493Z,6.23
2019-02-19T12:25:53.279Z,6.33
2019-02-19T12:28:22.711Z,7.00
2019-02-19T12:30:52.115Z,7.17
2019-02-19T12:33:21.560Z,7.10
2019-02-19T12:35:52.343Z,6.90
2019-02-19T12:38:21.791Z,7.40
2019-02-19T12:40:52.765Z,6.60
2019-02-19T12:43:22.279Z,7.13
2019-02-19T12:45:51.754Z,7.23
2019-02-19T12:48:21.828Z,6.77
2019-02-19T12:50:52.003Z,7.70
2019-02-19T12:53:22.413Z,7.73
2019-02-19T12:55:51.898Z,7.57
2019-02-19T12:58:21.410Z,7.60
2019-02-19T13:00:50.889Z,8.60
2019-02-19T13:03:20.512Z,7.87
2019-02-19T13:05:51.399Z,8.67
2019-02-19T13:08:20.902Z,7.63
2019-02-19T13:10:51.675Z,7.90
2019-02-19T13:13:21.191Z,10.10
2019-02-19T13:15:50.595Z,8.27
2019-02-19T13:18:20.100Z,7.83
2019-02-19T13:20:50.774Z,8.53
2019-02-19T13:23:20.223Z,9.00
2019-02-19T13:25:49.695Z,9.17
2019-02-19T13:28:19.212Z,8.87
2019-02-19T13:30:48.758Z,9.33
2019-02-19T13:33:18.239Z,10.10
2019-02-19T13:35:47.703Z,10.13
2019-02-19T13:38:17.187Z,9.20
2019-02-19T13:40:47.907Z,9.90
2019-02-19T13:43:17.467Z,9.43
2019-02-19T13:45:48.179Z,10.60
2019-02-19T13:48:17.659Z,9.30
2019-02-19T13:50:48.647Z,9.53
2019-02-19T13:53:25.714Z,9.70
2019-02-19T13:55:56.793Z,9.40
2019-02-19T13:58:26.208Z,9.80
2019-02-19T14:00:57.150Z,9.43
2019-02-19T14:03:26.629Z,9.77
2019-02-19T14:05:56.073Z,10.00
2019-02-19T14:08:25.483Z,8.87
2019-02-19T14:10:56.196Z,10.87
2019-02-19T14:13:25.675Z,9.53
2019-02-19T14:16:03.845Z,9.27
2019-02-19T14:18:53.171Z,10.50
2019-02-19T14:21:40.318Z,9.73
2019-02-19T14:24:23.646Z,10.43
2019-02-19T14:26:57.376Z,10.17
2019-02-19T14:29:44.888Z,10.10
2019-02-19T14:32:33.643Z,10.10
2019-02-19T14:35:04.761Z,9.67
2019-02-19T14:37:37.281Z,10.37
2019-02-19T14:40:10.724Z,9.63
2019-02-19T14:42:46.385Z,11.03
2019-02-19T14:45:23.699Z,9.90
2019-02-19T14:47:57.794Z,10.00
2019-02-19T14:50:46.627Z,9.70
2019-02-19T14:53:17.677Z,10.90
2019-02-19T14:55:48.836Z,20.00
2019-02-19T14:58:22.933Z,10.40
2019-02-19T15:01:12.640Z,10.30
2019-02-19T15:04:00.141Z,11.00
2019-02-19T15:06:33.990Z,10.70
2019-02-19T15:09:21.666Z,12.27
2019-02-19T15:11:53.631Z,11.23
2019-02-19T15:14:24.685Z,10.43
2019-02-19T15:17:09.875Z,11.60
2019-02-19T15:19:53.244Z,11.83
2019-02-19T15:22:27.672Z,12.90
2019-02-19T15:25:04.711Z,11.67
2019-02-19T15:27:37.667Z,11.30
2019-02-19T15:30:10.254Z,11.07
2019-02-19T15:32:42.899Z,11.33
2019-02-19T15:35:16.903Z,10.37
2019-02-19T15:37:49.959Z,10.97
2019-02-19T15:40:23.961Z,10.87
2019-02-19T15:43:11.260Z,12.50
2019-02-19T15:45:46.149Z,11.43
2019-02-19T15:48:34.990Z,11.40
2019-02-19T15:51:23.803Z,11.67
2019-02-19T15:54:00.720Z,11.50
2019-02-19T15:56:48.148Z,11.30
2019-02-19T15:59:19.236Z,11.10
2019-02-19T16:02:08.305Z,11.67
2019-02-19T16:04:41.358Z,11.73
2019-02-19T16:07:16.756Z,11.63
2019-02-19T16:09:59.808Z,11.80
2019-02-19T16:12:34.734Z,11.00
2019-02-19T16:15:11.052Z,12.37
2019-02-19T16:17:56.117Z,11.63
2019-02-19T16:20:27.227Z,11.70
2019-02-19T16:23:01.604Z,12.80
2019-02-19T16:25:39.048Z,13.50
2019-02-19T16:28:22.152Z,12.20
2019-02-19T16:30:56.980Z,12.27
2019-02-19T16:33:35.003Z,11.97
2019-02-19T16:36:16.159Z,12.07
2019-02-19T16:39:03.683Z,12.60
2019-02-19T16:41:38.814Z,12.77
2019-02-19T16:44:19.670Z,12.60
2019-02-19T16:46:58.033Z,12.50
2019-02-19T16:49:31.532Z,13.33
2019-02-19T16:52:11.428Z,13.53
2019-02-19T16:54:42.590Z,12.70
2019-02-19T16:57:17.655Z,13.77
2019-02-19T17:00:02.079Z,13.23
2019-02-19T17:02:47.600Z,13.80
2019-02-19T17:05:21.378Z,15.93
2019-02-19T17:08:12.239Z,15.63
2019-02-19T17:10:58.311Z,13.93
2019-02-19T17:13:35.451Z,14.10
2019-02-19T17:16:16.666Z,14.27
2019-02-19T17:19:04.131Z,13.73
2019-02-19T17:21:54.152Z,13.10
2019-02-19T17:24:25.283Z,13.10
2019-02-19T17:27:15.970Z,12.87
2019-02-19T17:29:47.020Z,14.00
2019-02-19T17:32:24.355Z,15.40
2019-02-19T17:34:58.115Z,13.60
2019-02-19T17:37:30.482Z,13.50
2019-02-19T17:40:04.222Z,13.33
2019-02-19T17:42:36.843Z,13.70
2019-02-19T17:45:16.996Z,13.72
2019-02-19T17:47:51.976Z,16.27
2019-02-19T17:50:38.889Z,17.62
2019-02-19T17:53:14.807Z,16.37
2019-02-19T17:56:02.060Z,17.97
2019-02-19T17:58:34.242Z,15.13
2019-02-19T18:01:10.951Z,15.27
2019-02-19T18:03:47.600Z,15.93
2019-02-19T18:06:35.777Z,15.93
2019-02-19T18:08:57.631Z,14.00
2019-02-19T18:11:42.024Z,12.58
2019-02-19T18:14:13.155Z,12.55
2019-02-19T18:16:57.547Z,14.60
2019-02-19T18:19:22.659Z,16.00
2019-02-19T18:21:52.167Z,16.17
2019-02-19T18:24:24.553Z,16.65
2019-02-19T18:26:54.119Z,17.32
2019-02-19T18:29:24.130Z,17.25
2019-02-19T18:31:53.596Z,17.02
2019-02-19T18:34:23.031Z,21.25
2019-02-19T18:36:52.527Z,18.20
2019-02-19T18:39:21.990Z,17.30
2019-02-19T18:41:53.034Z,14.03
2019-02-19T18:44:22.483Z,14.25
2019-02-19T18:46:53.271Z,15.65
2019-02-19T18:49:22.711Z,14.70
2019-02-19T18:51:53.401Z,20.62
2019-02-19T18:54:23.546Z,22.30
2019-02-19T18:56:53.135Z,19.57
2019-02-19T18:59:22.983Z,19.77
2019-02-19T19:01:52.443Z,20.95
2019-02-19T19:04:22.027Z,17.15
2019-02-19T19:06:52.893Z,18.60
2019-02-19T19:09:22.365Z,16.70
2019-02-19T19:11:53.438Z,19.45
2019-02-19T19:14:24.594Z,22.02
2019-02-19T19:16:53.998Z,20.95
2019-02-19T19:19:23.521Z,19.00
2019-02-19T19:21:54.211Z,19.00
2019-02-19T19:24:23.671Z,20.35
2019-02-19T19:26:53.150Z,21.50
2019-02-19T19:29:22.595Z,20.52
2019-02-19T19:31:53.374Z,22.15
2019-02-19T19:34:22.840Z,21.82
2019-02-19T19:36:53.681Z,19.55
2019-02-19T19:39:23.151Z,20.15
2019-02-19T19:41:52.704Z,19.42
2019-02-19T19:44:22.352Z,20.70
2019-02-19T19:46:52.466Z,20.40
2019-02-19T19:49:23.619Z,19.90
2019-02-19T19:51:54.368Z,20.43
2019-02-19T19:54:27.251Z,22.52
2019-02-19T19:56:56.877Z,22.50
2019-02-19T19:59:26.491Z,22.07
2019-02-19T20:01:59.165Z,22.02
2019-02-19T20:04:28.719Z,20.68
2019-02-19T20:06:59.591Z,20.27
2019-02-19T20:09:29.429Z,18.95
2019-02-19T20:12:00.274Z,20.00
2019-02-19T20:14:29.826Z,20.08
2019-02-19T20:16:59.235Z,18.42
2019-02-19T20:19:28.795Z,18.60
2019-02-19T20:21:58.486Z,18.85
2019-02-19T20:24:27.937Z,18.30
2019-02-19T20:26:58.751Z,20.27
2019-02-19T20:29:28.375Z,19.30
2019-02-19T20:31:59.185Z,20.50
2019-02-19T20:34:28.664Z,17.95
2019-02-19T20:36:59.580Z,18.40
2019-02-19T20:39:28.991Z,19.27
2019-02-19T20:41:58.436Z,21.00
2019-02-19T20:44:27.947Z,20.27
2019-02-19T20:46:58.833Z,21.33
2019-02-19T20:49:28.319Z,21.17
2019-02-19T20:51:59.052Z,27.80
2019-02-19T20:54:28.462Z,25.72
2019-02-19T20:56:59.171Z,26.17
2019-02-19T20:59:28.583Z,24.40
2019-02-19T21:01:59.408Z,22.27
2019-02-19T21:04:28.910Z,22.93
2019-02-19T21:06:59.623Z,21.97
2019-02-19T21:09:30.578Z,22.93
2019-02-19T21:12:00.093Z,22.75
2019-02-19T21:14:29.575Z,23.52
2019-02-19T21:16:59.085Z,22.48
2019-02-19T21:19:28.568Z,23.98
2019-02-19T21:21:58.088Z,23.20
2019-02-19T21:24:27.512Z,25.92
2019-02-19T21:26:57.030Z,24.80
2019-02-19T21:29:26.438Z,24.30
2019-02-19T21:31:57.257Z,27.42
2019-02-19T21:34:26.661Z,24.10
2019-02-19T21:36:59.628Z,27.80
2019-02-19T21:39:29.043Z,22.90
2019-02-19T21:41:59.974Z,23.98
2019-02-19T21:44:29.379Z,23.32
2019-02-19T21:46:58.846Z,22.90
2019-02-19T21:49:28.368Z,25.85
2019-02-19T21:51:57.778Z,26.40
2019-02-19T21:54:27.263Z,24.20
2019-02-19T21:56:58.143Z,24.05
2019-02-19T21:59:27.583Z,23.85
2019-02-19T22:01:58.466Z,27.13
2019-02-19T22:04:27.976Z,24.77
2019-02-19T22:06:58.658Z,27.50
2019-02-19T22:09:29.155Z,28.30
2019-02-19T22:11:58.564Z,26.10
2019-02-19T22:14:28.073Z,27.48
2019-02-19T22:16:57.551Z,26.27
2019-02-19T22:19:27.075Z,25.17
2019-02-19T22:22:03.353Z,23.90
2019-02-19T22:24:38.733Z,26.73
2019-02-19T22:27:09.094Z,27.60
2019-02-19T22:29:38.975Z,26.62
2019-02-19T22:32:10.708Z,28.20
2019-02-19T22:34:40.260Z,24.05
2019-02-19T22:37:11.034Z,24.23
2019-02-19T22:39:40.474Z,23.65
2019-02-19T22:42:11.155Z,24.75
2019-02-19T22:44:40.665Z,25.48
2019-02-19T22:47:10.079Z,25.30
2019-02-19T22:49:39.518Z,24.35
2019-02-19T22:52:12.489Z,30.85
2019-02-19T22:54:44.935Z,25.75
2019-02-19T22:57:15.727Z,26.25
2019-02-19T22:59:45.166Z,27.58
2019-02-19T23:02:15.962Z,29.23
2019-02-19T23:04:46.384Z,28.73
2019-02-19T23:07:17.475Z,28.80
2019-02-19T23:09:47.003Z,28.38
2019-02-19T23:12:16.786Z,28.40
2019-02-19T23:14:46.303Z,29.37
2019-02-19T23:17:15.790Z,30.95
2019-02-19T23:19:45.299Z,30.72
2019-02-19T23:22:21.334Z,30.17
2019-02-19T23:24:45.929Z,36.95
2019-02-19T23:27:15.404Z,35.60
2019-02-19T23:29:44.857Z,29.80
2019-02-19T23:32:16.151Z,31.45
2019-02-19T23:34:46.570Z,30.15
2019-02-19T23:37:20.559Z,29.25
2019-02-19T23:39:50.943Z,33.20
2019-02-19T23:42:20.418Z,32.42
2019-02-19T23:44:52.830Z,30.15
2019-02-19T23:47:23.784Z,39.60
2019-02-19T23:49:53.294Z,30.20
2019-02-19T23:52:30.314Z,29.40
2019-02-19T23:54:56.992Z,31.85
2019-02-19T23:57:28.037Z,30.02
2019-02-19T23:59:57.623Z,56.55
